sensor_id;sensor_type;location;lat;lon;timestamp;pressure;altitude;pressure_sealevel;temperature;humidity
38253;BME280;24785;52.372;20.672;2023-02-04T00:02:01;100119.31;;;-2.28;100.00
38253;BME280;24785;52.372;20.672;2023-02-04T00:12:02;100141.75;;;-2.25;100.00
38253;BME280;24785;52.372;20.672;2023-02-04T00:22:03;100141.53;;;-2.30;100.00
38253;BME280;24785;52.372;20.672;2023-02-04T00:44:12;100216.41;;;-2.34;100.00
38253;BME280;24785;52.372;20.672;2023-02-04T00:54:16;100247.50;;;-2.31;100.00
38253;BME280;24785;52.372;20.672;2023-02-04T01:04:17;100293.94;;;-2.32;100.00
38253;BME280;24785;52.372;20.672;2023-02-04T01:14:18;100315.22;;;-2.20;100.00
38253;BME280;24785;52.372;20.672;2023-02-04T01:24:18;100354.00;;;-2.15;100.00
38253;BME280;24785;52.372;20.672;2023-02-04T01:34:19;100405.13;;;-2.11;100.00
38253;BME280;24785;52.372;20.672;2023-02-04T01:44:20;100441.31;;;-2.07;100.00
38253;BME280;24785;52.372;20.672;2023-02-04T01:54:21;100473.44;;;-2.05;100.00
38253;BME280;24785;52.372;20.672;2023-02-04T02:04:29;100520.06;;;-2.07;100.00
38253;BME280;24785;52.372;20.672;2023-02-04T02:14:30;100569.34;;;-2.09;100.00
38253;BME280;24785;52.372;20.672;2023-02-04T02:24:33;100621.94;;;-2.02;100.00
38253;BME280;24785;52.372;20.672;2023-02-04T02:34:35;100655.69;;;-1.99;100.00
38253;BME280;24785;52.372;20.672;2023-02-04T02:44:36;100693.28;;;-1.99;100.00
38253;BME280;24785;52.372;20.672;2023-02-04T02:54:38;100701.84;;;-1.90;100.00
38253;BME280;24785;52.372;20.672;2023-02-04T03:04:43;100757.28;;;-1.85;100.00
38253;BME280;24785;52.372;20.672;2023-02-04T03:14:45;100802.22;;;-1.95;100.00
38253;BME280;24785;52.372;20.672;2023-02-04T03:24:45;100846.78;;;-2.01;100.00
38253;BME280;24785;52.372;20.672;2023-02-04T03:34:46;100861.72;;;-2.02;100.00
38253;BME280;24785;52.372;20.672;2023-02-04T03:44:47;100895.91;;;-2.25;100.00
38253;BME280;24785;52.372;20.672;2023-02-04T03:54:48;100942.28;;;-2.40;100.00
38253;BME280;24785;52.372;20.672;2023-02-04T04:04:48;100969.78;;;-2.50;100.00
38253;BME280;24785;52.372;20.672;2023-02-04T04:14:49;101006.59;;;-2.36;100.00
38253;BME280;24785;52.372;20.672;2023-02-04T04:24:50;101036.13;;;-2.34;100.00
38253;BME280;24785;52.372;20.672;2023-02-04T04:34:51;101065.50;;;-2.15;100.00
38253;BME280;24785;52.372;20.672;2023-02-04T04:44:51;101106.78;;;-2.01;100.00
38253;BME280;24785;52.372;20.672;2023-02-04T04:54:52;101118.75;;;-1.99;100.00
38253;BME280;24785;52.372;20.672;2023-02-04T05:04:53;101153.22;;;-2.02;100.00
38253;BME280;24785;52.372;20.672;2023-02-04T05:14:54;101184.31;;;-2.13;100.00
38253;BME280;24785;52.372;20.672;2023-02-04T05:24:55;101214.88;;;-2.20;100.00
38253;BME280;24785;52.372;20.672;2023-02-04T05:34:56;101246.97;;;-2.58;100.00
38253;BME280;24785;52.372;20.672;2023-02-04T06:05:03;101366.91;;;-3.41;100.00
38253;BME280;24785;52.372;20.672;2023-02-04T06:15:04;101391.25;;;-3.57;100.00
38253;BME280;24785;52.372;20.672;2023-02-04T06:25:05;101422.34;;;-3.62;100.00
38253;BME280;24785;52.372;20.672;2023-02-04T06:35:07;101446.19;;;-3.73;100.00
38253;BME280;24785;52.372;20.672;2023-02-04T06:45:08;101470.66;;;-3.82;100.00
38253;BME280;24785;52.372;20.672;2023-02-04T06:55:09;101493.50;;;-3.92;100.00
38253;BME280;24785;52.372;20.672;2023-02-04T07:05:10;101520.00;;;-3.95;100.00
38253;BME280;24785;52.372;20.672;2023-02-04T07:15:11;101554.63;;;-3.84;100.00
38253;BME280;24785;52.372;20.672;2023-02-04T07:25:11;101584.41;;;-3.85;100.00
38253;BME280;24785;52.372;20.672;2023-02-04T07:35:15;101595.13;;;-3.78;100.00
38253;BME280;24785;52.372;20.672;2023-02-04T07:56:03;101652.00;;;-3.70;100.00
38253;BME280;24785;52.372;20.672;2023-02-04T08:06:04;101661.19;;;-3.66;100.00
38253;BME280;24785;52.372;20.672;2023-02-04T08:16:05;101669.13;;;-3.58;100.00
38253;BME280;24785;52.372;20.672;2023-02-04T08:26:10;101687.38;;;-3.31;100.00
38253;BME280;24785;52.372;20.672;2023-02-04T08:36:12;101684.03;;;-2.89;100.00
38253;BME280;24785;52.372;20.672;2023-02-04T08:46:13;101696.81;;;-2.94;100.00
38253;BME280;24785;52.372;20.672;2023-02-04T08:56:13;101703.38;;;-2.90;100.00
38253;BME280;24785;52.372;20.672;2023-02-04T09:06:19;101719.09;;;-2.72;99.79
38253;BME280;24785;52.372;20.672;2023-02-04T09:16:20;101720.38;;;-2.76;100.00
38253;BME280;24785;52.372;20.672;2023-02-04T09:26:21;101748.06;;;-2.56;100.00
38253;BME280;24785;52.372;20.672;2023-02-04T09:36:22;101774.50;;;-2.49;100.00
38253;BME280;24785;52.372;20.672;2023-02-04T09:46:28;101794.94;;;-2.61;100.00
38253;BME280;24785;52.372;20.672;2023-02-04T09:56:30;101805.13;;;-2.58;100.00
38253;BME280;24785;52.372;20.672;2023-02-04T10:06:31;101804.50;;;-2.52;99.03
38253;BME280;24785;52.372;20.672;2023-02-04T10:16:33;101802.84;;;-2.53;97.62
38253;BME280;24785;52.372;20.672;2023-02-04T10:26:34;101804.84;;;-2.47;95.59
38253;BME280;24785;52.372;20.672;2023-02-04T10:36:35;101830.44;;;-2.49;94.98
38253;BME280;24785;52.372;20.672;2023-02-04T10:46:36;101841.13;;;-2.25;95.39
38253;BME280;24785;52.372;20.672;2023-02-04T10:56:37;101844.09;;;-2.19;93.44
38253;BME280;24785;52.372;20.672;2023-02-04T11:06:38;101841.88;;;-2.06;94.52
38253;BME280;24785;52.372;20.672;2023-02-04T11:16:46;101836.34;;;-1.95;94.75
38253;BME280;24785;52.372;20.672;2023-02-04T11:26:50;101850.09;;;-1.75;94.15
38253;BME280;24785;52.372;20.672;2023-02-04T11:47:06;101846.06;;;-1.45;92.17
38253;BME280;24785;52.372;20.672;2023-02-04T11:57:10;101842.81;;;-1.39;93.16
38253;BME280;24785;52.372;20.672;2023-02-04T12:07:12;101846.97;;;-1.20;93.38
38253;BME280;24785;52.372;20.672;2023-02-04T12:17:18;101862.16;;;-0.82;92.16
38253;BME280;24785;52.372;20.672;2023-02-04T12:27:19;101874.00;;;-0.61;93.52
38253;BME280;24785;52.372;20.672;2023-02-04T12:37:20;101866.91;;;-0.53;91.79
38253;BME280;24785;52.372;20.672;2023-02-04T12:47:22;101881.91;;;-0.70;90.45
38253;BME280;24785;52.372;20.672;2023-02-04T12:57:23;101887.50;;;-0.65;87.91
38253;BME280;24785;52.372;20.672;2023-02-04T13:07:24;101901.13;;;-0.85;89.25
38253;BME280;24785;52.372;20.672;2023-02-04T13:17:25;101915.16;;;-0.36;86.55
38253;BME280;24785;52.372;20.672;2023-02-04T13:27:26;101921.81;;;-0.99;87.00
38253;BME280;24785;52.372;20.672;2023-02-04T13:37:27;101924.03;;;-0.53;87.47
38253;BME280;24785;52.372;20.672;2023-02-04T13:47:28;101933.06;;;-0.72;83.91
38253;BME280;24785;52.372;20.672;2023-02-04T13:57:29;101944.78;;;-0.42;85.24
38253;BME280;24785;52.372;20.672;2023-02-04T14:07:30;101957.06;;;-0.83;84.45
38253;BME280;24785;52.372;20.672;2023-02-04T14:17:33;101958.03;;;-0.92;79.90
38253;BME280;24785;52.372;20.672;2023-02-04T14:27:33;101968.50;;;-1.01;80.62
38253;BME280;24785;52.372;20.672;2023-02-04T14:37:34;101977.84;;;-1.48;81.55
38253;BME280;24785;52.372;20.672;2023-02-04T14:47:36;101982.03;;;-1.64;81.21
38253;BME280;24785;52.372;20.672;2023-02-04T14:57:37;101997.41;;;-1.77;82.43
38253;BME280;24785;52.372;20.672;2023-02-04T15:07:38;102011.91;;;-1.91;83.27
38253;BME280;24785;52.372;20.672;2023-02-04T15:17:39;102028.00;;;-2.11;85.16
38253;BME280;24785;52.372;20.672;2023-02-04T15:27:40;102046.84;;;-2.34;84.95
38253;BME280;24785;52.372;20.672;2023-02-04T15:37:41;102061.34;;;-2.85;87.67
38253;BME280;24785;52.372;20.672;2023-02-04T15:47:42;102072.06;;;-3.05;88.42
38253;BME280;24785;52.372;20.672;2023-02-04T15:57:43;102093.41;;;-3.28;87.89
38253;BME280;24785;52.372;20.672;2023-02-04T16:07:43;102096.59;;;-3.43;86.38
38253;BME280;24785;52.372;20.672;2023-02-04T16:17:44;102107.66;;;-3.59;86.90
38253;BME280;24785;52.372;20.672;2023-02-04T16:27:45;102111.66;;;-3.65;86.54
38253;BME280;24785;52.372;20.672;2023-02-04T16:37:46;102138.81;;;-3.85;87.53
38253;BME280;24785;52.372;20.672;2023-02-04T16:47:47;102159.22;;;-3.98;88.83
38253;BME280;24785;52.372;20.672;2023-02-04T16:57:48;102162.66;;;-3.88;88.91
38253;BME280;24785;52.372;20.672;2023-02-04T17:07:49;102170.16;;;-3.74;87.61
38253;BME280;24785;52.372;20.672;2023-02-04T17:17:49;102179.66;;;-3.73;86.58
38253;BME280;24785;52.372;20.672;2023-02-04T17:27:50;102179.88;;;-4.05;87.28
38253;BME280;24785;52.372;20.672;2023-02-04T17:37:51;102185.22;;;-4.56;89.67
38253;BME280;24785;52.372;20.672;2023-02-04T17:47:53;102204.47;;;-4.67;93.03
38253;BME280;24785;52.372;20.672;2023-02-04T17:57:56;102215.31;;;-4.92;96.91
38253;BME280;24785;52.372;20.672;2023-02-04T18:08:00;102232.94;;;-5.15;100.00
38253;BME280;24785;52.372;20.672;2023-02-04T18:18:16;102241.31;;;-5.32;100.00
38253;BME280;24785;52.372;20.672;2023-02-04T18:28:20;102256.91;;;-5.42;100.00
38253;BME280;24785;52.372;20.672;2023-02-04T18:38:24;102274.84;;;-5.38;100.00
38253;BME280;24785;52.372;20.672;2023-02-04T18:58:41;102276.78;;;-5.19;100.00
38253;BME280;24785;52.372;20.672;2023-02-04T19:08:43;102286.28;;;-5.18;100.00
38253;BME280;24785;52.372;20.672;2023-02-04T19:18:44;102292.94;;;-5.25;100.00
38253;BME280;24785;52.372;20.672;2023-02-04T19:28:46;102309.31;;;-5.12;100.00
38253;BME280;24785;52.372;20.672;2023-02-04T19:39:05;102309.59;;;-4.73;100.00
38253;BME280;24785;52.372;20.672;2023-02-04T19:59:35;102326.00;;;-4.50;100.00
38253;BME280;24785;52.372;20.672;2023-02-04T20:09:35;102334.22;;;-4.55;100.00
38253;BME280;24785;52.372;20.672;2023-02-04T20:19:36;102353.63;;;-4.57;100.00
38253;BME280;24785;52.372;20.672;2023-02-04T20:29:40;102368.22;;;-4.76;100.00
38253;BME280;24785;52.372;20.672;2023-02-04T20:39:41;102393.19;;;-5.03;100.00
38253;BME280;24785;52.372;20.672;2023-02-04T20:49:45;102392.34;;;-5.04;100.00
38253;BME280;24785;52.372;20.672;2023-02-04T20:59:52;102400.94;;;-5.24;100.00
38253;BME280;24785;52.372;20.672;2023-02-04T21:09:53;102431.84;;;-5.74;100.00
38253;BME280;24785;52.372;20.672;2023-02-04T21:19:54;102425.69;;;-5.95;100.00
38253;BME280;24785;52.372;20.672;2023-02-04T21:29:54;102445.31;;;-6.25;100.00
38253;BME280;24785;52.372;20.672;2023-02-04T21:39:55;102453.09;;;-6.36;100.00
38253;BME280;24785;52.372;20.672;2023-02-04T21:49:57;102461.97;;;-6.50;100.00
38253;BME280;24785;52.372;20.672;2023-02-04T22:00:07;102481.53;;;-6.68;100.00
38253;BME280;24785;52.372;20.672;2023-02-04T22:10:13;102489.81;;;-6.74;100.00
38253;BME280;24785;52.372;20.672;2023-02-04T22:20:14;102492.53;;;-6.76;100.00
38253;BME280;24785;52.372;20.672;2023-02-04T22:30:16;102493.91;;;-6.83;100.00
38253;BME280;24785;52.372;20.672;2023-02-04T22:40:17;102508.31;;;-6.90;100.00
38253;BME280;24785;52.372;20.672;2023-02-04T22:50:18;102514.63;;;-7.18;100.00
38253;BME280;24785;52.372;20.672;2023-02-04T23:00:19;102541.66;;;-7.44;100.00
38253;BME280;24785;52.372;20.672;2023-02-04T23:10:20;102557.59;;;-7.36;100.00
38253;BME280;24785;52.372;20.672;2023-02-04T23:20:21;102563.94;;;-7.27;100.00
38253;BME280;24785;52.372;20.672;2023-02-04T23:30:21;102571.22;;;-7.33;100.00
38253;BME280;24785;52.372;20.672;2023-02-04T23:40:22;102570.56;;;-7.62;100.00
38253;BME280;24785;52.372;20.672;2023-02-04T23:50:23;102574.28;;;-7.91;100.00
